sensor_id;sensor_type;location;lat;lon;timestamp;P1;durP1;ratioP1;P2;durP2;ratioP2
13311;SDS011;34033;48.672;9.376;2023-01-28T00:01:12;4.30;;;3.60;;
13311;SDS011;34033;48.672;9.376;2023-01-28T00:03:39;4.50;;;3.27;;
13311;SDS011;34033;48.672;9.376;2023-01-28T00:06:12;4.30;;;3.53;;
13311;SDS011;34033;48.672;9.376;2023-01-28T00:08:38;3.33;;;3.03;;
13311;SDS011;34033;48.672;9.376;2023-01-28T00:11:05;3.77;;;3.30;;
13311;SDS011;34033;48.672;9.376;2023-01-28T00:13:32;3.97;;;3.30;;
13311;SDS011;34033;48.672;9.376;2023-01-28T00:15:59;4.37;;;3.20;;
13311;SDS011;34033;48.672;9.376;2023-01-28T00:18:26;3.57;;;3.17;;
13311;SDS011;34033;48.672;9.376;2023-01-28T00:23:25;4.00;;;3.23;;
13311;SDS011;34033;48.672;9.376;2023-01-28T00:25:52;3.90;;;3.30;;
13311;SDS011;34033;48.672;9.376;2023-01-28T00:28:18;5.13;;;3.40;;
13311;SDS011;34033;48.672;9.376;2023-01-28T00:30:44;3.93;;;3.30;;
13311;SDS011;34033;48.672;9.376;2023-01-28T00:33:09;4.80;;;3.40;;
13311;SDS011;34033;48.672;9.376;2023-01-28T00:35:35;5.50;;;3.47;;
13311;SDS011;34033;48.672;9.376;2023-01-28T00:38:00;5.90;;;3.40;;
13311;SDS011;34033;48.672;9.376;2023-01-28T00:40:27;3.33;;;2.80;;
13311;SDS011;34033;48.672;9.376;2023-01-28T00:42:52;4.30;;;3.17;;
13311;SDS011;34033;48.672;9.376;2023-01-28T00:45:18;4.10;;;3.10;;
13311;SDS011;34033;48.672;9.376;2023-01-28T00:47:44;6.00;;;2.97;;
13311;SDS011;34033;48.672;9.376;2023-01-28T00:50:10;3.80;;;3.23;;
13311;SDS011;34033;48.672;9.376;2023-01-28T00:52:35;3.83;;;3.07;;
13311;SDS011;34033;48.672;9.376;2023-01-28T00:55:00;4.93;;;3.20;;
13311;SDS011;34033;48.672;9.376;2023-01-28T00:57:26;5.20;;;3.77;;
13311;SDS011;34033;48.672;9.376;2023-01-28T00:59:51;4.40;;;3.43;;
13311;SDS011;34033;48.672;9.376;2023-01-28T01:02:16;5.27;;;3.30;;
13311;SDS011;34033;48.672;9.376;2023-01-28T01:04:42;3.80;;;3.37;;
13311;SDS011;34033;48.672;9.376;2023-01-28T01:07:18;4.67;;;3.30;;
13311;SDS011;34033;48.672;9.376;2023-01-28T01:09:45;3.60;;;3.00;;
13311;SDS011;34033;48.672;9.376;2023-01-28T01:12:11;3.73;;;3.30;;
13311;SDS011;34033;48.672;9.376;2023-01-28T01:14:36;3.30;;;2.97;;
13311;SDS011;34033;48.672;9.376;2023-01-28T01:17:01;7.67;;;3.30;;
13311;SDS011;34033;48.672;9.376;2023-01-28T01:19:27;4.30;;;3.13;;
13311;SDS011;34033;48.672;9.376;2023-01-28T01:21:55;3.37;;;2.87;;
13311;SDS011;34033;48.672;9.376;2023-01-28T01:24:20;3.77;;;2.80;;
13311;SDS011;34033;48.672;9.376;2023-01-28T01:26:46;4.10;;;3.03;;
13311;SDS011;34033;48.672;9.376;2023-01-28T01:29:11;2.70;;;2.50;;
13311;SDS011;34033;48.672;9.376;2023-01-28T01:31:37;3.40;;;2.93;;
13311;SDS011;34033;48.672;9.376;2023-01-28T01:34:02;3.17;;;2.87;;
13311;SDS011;34033;48.672;9.376;2023-01-28T01:36:28;3.50;;;3.07;;
13311;SDS011;34033;48.672;9.376;2023-01-28T01:38:53;4.60;;;3.10;;
13311;SDS011;34033;48.672;9.376;2023-01-28T01:41:24;3.27;;;2.80;;
13311;SDS011;34033;48.672;9.376;2023-01-28T01:46:26;3.27;;;2.70;;
13311;SDS011;34033;48.672;9.376;2023-01-28T01:48:56;4.40;;;2.93;;
13311;SDS011;34033;48.672;9.376;2023-01-28T01:51:32;4.10;;;2.80;;
13311;SDS011;34033;48.672;9.376;2023-01-28T01:53:59;3.00;;;2.60;;
13311;SDS011;34033;48.672;9.376;2023-01-28T01:56:27;3.60;;;3.10;;
13311;SDS011;34033;48.672;9.376;2023-01-28T01:59:00;2.97;;;2.63;;
13311;SDS011;34033;48.672;9.376;2023-01-28T02:01:26;3.10;;;2.80;;
13311;SDS011;34033;48.672;9.376;2023-01-28T02:06:41;3.07;;;2.57;;
13311;SDS011;34033;48.672;9.376;2023-01-28T02:11:51;2.70;;;2.23;;
13311;SDS011;34033;48.672;9.376;2023-01-28T02:14:20;3.00;;;2.43;;
13311;SDS011;34033;48.672;9.376;2023-01-28T02:16:49;2.80;;;2.40;;
13311;SDS011;34033;48.672;9.376;2023-01-28T02:19:14;3.00;;;2.63;;
13311;SDS011;34033;48.672;9.376;2023-01-28T02:21:54;2.93;;;2.63;;
13311;SDS011;34033;48.672;9.376;2023-01-28T02:24:44;4.50;;;2.60;;
13311;SDS011;34033;48.672;9.376;2023-01-28T02:27:28;3.47;;;2.63;;
13311;SDS011;34033;48.672;9.376;2023-01-28T02:30:12;2.97;;;2.23;;
13311;SDS011;34033;48.672;9.376;2023-01-28T02:32:48;3.03;;;2.47;;
13311;SDS011;34033;48.672;9.376;2023-01-28T02:35:23;2.73;;;2.40;;
13311;SDS011;34033;48.672;9.376;2023-01-28T02:37:58;2.97;;;2.43;;
13311;SDS011;34033;48.672;9.376;2023-01-28T02:40:28;2.67;;;2.37;;
13311;SDS011;34033;48.672;9.376;2023-01-28T02:43:18;3.87;;;2.50;;
13311;SDS011;34033;48.672;9.376;2023-01-28T02:45:54;2.87;;;2.50;;
13311;SDS011;34033;48.672;9.376;2023-01-28T02:48:38;2.73;;;2.40;;
13311;SDS011;34033;48.672;9.376;2023-01-28T02:54:10;2.63;;;2.40;;
13311;SDS011;34033;48.672;9.376;2023-01-28T03:05:01;2.40;;;2.20;;
13311;SDS011;34033;48.672;9.376;2023-01-28T03:07:28;2.37;;;2.10;;
13311;SDS011;34033;48.672;9.376;2023-01-28T03:09:56;2.57;;;2.30;;
13311;SDS011;34033;48.672;9.376;2023-01-28T03:12:26;2.60;;;2.40;;
13311;SDS011;34033;48.672;9.376;2023-01-28T03:15:13;2.90;;;2.40;;
13311;SDS011;34033;48.672;9.376;2023-01-28T03:26:57;3.17;;;2.30;;
13311;SDS011;34033;48.672;9.376;2023-01-28T03:29:49;2.40;;;2.20;;
13311;SDS011;34033;48.672;9.376;2023-01-28T03:32:36;4.17;;;2.73;;
13311;SDS011;34033;48.672;9.376;2023-01-28T03:35:23;3.13;;;2.60;;
13311;SDS011;34033;48.672;9.376;2023-01-28T03:38:12;2.87;;;2.23;;
13311;SDS011;34033;48.672;9.376;2023-01-28T03:40:57;3.00;;;2.70;;
13311;SDS011;34033;48.672;9.376;2023-01-28T03:43:24;2.40;;;2.20;;
13311;SDS011;34033;48.672;9.376;2023-01-28T03:45:50;3.70;;;2.80;;
13311;SDS011;34033;48.672;9.376;2023-01-28T03:48:19;2.60;;;2.40;;
13311;SDS011;34033;48.672;9.376;2023-01-28T03:50:46;4.57;;;2.57;;
13311;SDS011;34033;48.672;9.376;2023-01-28T03:53:12;3.83;;;2.20;;
13311;SDS011;34033;48.672;9.376;2023-01-28T03:55:40;2.47;;;2.27;;
13311;SDS011;34033;48.672;9.376;2023-01-28T03:58:05;2.90;;;2.40;;
13311;SDS011;34033;48.672;9.376;2023-01-28T04:00:31;2.40;;;2.20;;
13311;SDS011;34033;48.672;9.376;2023-01-28T04:03:02;2.40;;;2.20;;
13311;SDS011;34033;48.672;9.376;2023-01-28T04:05:29;2.57;;;2.37;;
13311;SDS011;34033;48.672;9.376;2023-01-28T04:07:54;2.60;;;2.40;;
13311;SDS011;34033;48.672;9.376;2023-01-28T04:10:20;2.30;;;2.10;;
13311;SDS011;34033;48.672;9.376;2023-01-28T04:12:46;2.60;;;2.20;;
13311;SDS011;34033;48.672;9.376;2023-01-28T04:15:14;2.73;;;2.47;;
13311;SDS011;34033;48.672;9.376;2023-01-28T04:17:43;2.60;;;2.30;;
13311;SDS011;34033;48.672;9.376;2023-01-28T04:20:10;2.40;;;2.20;;
13311;SDS011;34033;48.672;9.376;2023-01-28T04:22:36;2.10;;;1.90;;
13311;SDS011;34033;48.672;9.376;2023-01-28T04:25:02;4.00;;;2.40;;
13311;SDS011;34033;48.672;9.376;2023-01-28T04:27:27;2.93;;;2.63;;
13311;SDS011;34033;48.672;9.376;2023-01-28T04:29:52;2.57;;;2.20;;
13311;SDS011;34033;48.672;9.376;2023-01-28T04:32:18;2.70;;;2.30;;
13311;SDS011;34033;48.672;9.376;2023-01-28T04:34:43;2.63;;;2.40;;
13311;SDS011;34033;48.672;9.376;2023-01-28T04:37:08;2.53;;;2.33;;
13311;SDS011;34033;48.672;9.376;2023-01-28T04:39:34;4.73;;;2.27;;
13311;SDS011;34033;48.672;9.376;2023-01-28T04:41:59;2.90;;;2.60;;
13311;SDS011;34033;48.672;9.376;2023-01-28T04:44:24;2.47;;;2.20;;
13311;SDS011;34033;48.672;9.376;2023-01-28T04:46:49;2.80;;;2.57;;
13311;SDS011;34033;48.672;9.376;2023-01-28T04:49:15;2.30;;;2.10;;
13311;SDS011;34033;48.672;9.376;2023-01-28T04:51:40;2.70;;;2.47;;
13311;SDS011;34033;48.672;9.376;2023-01-28T04:54:06;2.50;;;2.30;;
13311;SDS011;34033;48.672;9.376;2023-01-28T04:56:31;2.87;;;2.50;;
13311;SDS011;34033;48.672;9.376;2023-01-28T04:58:57;2.47;;;2.27;;
13311;SDS011;34033;48.672;9.376;2023-01-28T05:01:22;2.53;;;2.23;;
13311;SDS011;34033;48.672;9.376;2023-01-28T05:03:49;2.40;;;2.20;;
13311;SDS011;34033;48.672;9.376;2023-01-28T05:06:14;2.50;;;2.30;;
13311;SDS011;34033;48.672;9.376;2023-01-28T05:08:39;3.47;;;2.70;;
13311;SDS011;34033;48.672;9.376;2023-01-28T05:11:05;4.00;;;2.17;;
13311;SDS011;34033;48.672;9.376;2023-01-28T05:13:31;2.60;;;2.40;;
13311;SDS011;34033;48.672;9.376;2023-01-28T05:15:56;3.13;;;2.60;;
13311;SDS011;34033;48.672;9.376;2023-01-28T05:18:22;2.53;;;2.33;;
13311;SDS011;34033;48.672;9.376;2023-01-28T05:20:47;2.30;;;2.17;;
13311;SDS011;34033;48.672;9.376;2023-01-28T05:23:12;2.73;;;2.53;;
13311;SDS011;34033;48.672;9.376;2023-01-28T05:25:38;2.27;;;2.13;;
13311;SDS011;34033;48.672;9.376;2023-01-28T05:28:03;2.87;;;2.50;;
13311;SDS011;34033;48.672;9.376;2023-01-28T05:30:29;3.50;;;2.93;;
13311;SDS011;34033;48.672;9.376;2023-01-28T05:32:54;4.23;;;2.40;;
13311;SDS011;34033;48.672;9.376;2023-01-28T05:35:20;2.77;;;2.40;;
13311;SDS011;34033;48.672;9.376;2023-01-28T05:37:46;2.40;;;2.20;;
13311;SDS011;34033;48.672;9.376;2023-01-28T05:40:11;2.40;;;2.20;;
13311;SDS011;34033;48.672;9.376;2023-01-28T05:42:37;2.43;;;2.23;;
13311;SDS011;34033;48.672;9.376;2023-01-28T05:45:02;2.97;;;2.67;;
13311;SDS011;34033;48.672;9.376;2023-01-28T05:47:27;2.57;;;2.37;;
13311;SDS011;34033;48.672;9.376;2023-01-28T05:49:53;2.77;;;2.47;;
13311;SDS011;34033;48.672;9.376;2023-01-28T05:52:18;2.47;;;2.23;;
13311;SDS011;34033;48.672;9.376;2023-01-28T05:54:43;3.93;;;2.67;;
13311;SDS011;34033;48.672;9.376;2023-01-28T05:57:09;2.73;;;2.17;;
13311;SDS011;34033;48.672;9.376;2023-01-28T05:59:34;3.43;;;2.70;;
13311;SDS011;34033;48.672;9.376;2023-01-28T06:01:59;5.47;;;2.90;;
13311;SDS011;34033;48.672;9.376;2023-01-28T06:04:25;2.93;;;2.70;;
13311;SDS011;34033;48.672;9.376;2023-01-28T06:06:50;3.37;;;2.87;;
13311;SDS011;34033;48.672;9.376;2023-01-28T06:09:15;2.93;;;2.63;;
13311;SDS011;34033;48.672;9.376;2023-01-28T06:11:41;2.67;;;2.40;;
13311;SDS011;34033;48.672;9.376;2023-01-28T06:14:06;3.13;;;2.50;;
13311;SDS011;34033;48.672;9.376;2023-01-28T06:16:31;2.70;;;2.50;;
13311;SDS011;34033;48.672;9.376;2023-01-28T06:18:57;3.13;;;2.60;;
13311;SDS011;34033;48.672;9.376;2023-01-28T06:21:22;3.20;;;2.90;;
13311;SDS011;34033;48.672;9.376;2023-01-28T06:23:47;3.20;;;2.60;;
13311;SDS011;34033;48.672;9.376;2023-01-28T06:26:13;4.10;;;2.87;;
13311;SDS011;34033;48.672;9.376;2023-01-28T06:28:38;2.13;;;1.93;;
13311;SDS011;34033;48.672;9.376;2023-01-28T06:31:03;2.97;;;2.30;;
13311;SDS011;34033;48.672;9.376;2023-01-28T06:33:29;3.87;;;2.50;;
13311;SDS011;34033;48.672;9.376;2023-01-28T06:35:54;3.10;;;2.23;;
13311;SDS011;34033;48.672;9.376;2023-01-28T06:38:20;2.73;;;2.47;;
13311;SDS011;34033;48.672;9.376;2023-01-28T06:40:50;2.73;;;2.43;;
13311;SDS011;34033;48.672;9.376;2023-01-28T06:43:19;2.60;;;2.40;;
13311;SDS011;34033;48.672;9.376;2023-01-28T06:46:01;3.10;;;2.53;;
13311;SDS011;34033;48.672;9.376;2023-01-28T06:48:27;2.70;;;2.50;;
13311;SDS011;34033;48.672;9.376;2023-01-28T06:50:53;2.53;;;2.33;;
13311;SDS011;34033;48.672;9.376;2023-01-28T06:53:18;3.17;;;2.33;;
13311;SDS011;34033;48.672;9.376;2023-01-28T06:55:44;2.93;;;2.63;;
13311;SDS011;34033;48.672;9.376;2023-01-28T06:58:09;2.77;;;2.30;;
13311;SDS011;34033;48.672;9.376;2023-01-28T07:00:35;2.90;;;2.60;;
13311;SDS011;34033;48.672;9.376;2023-01-28T07:03:01;4.77;;;3.03;;
13311;SDS011;34033;48.672;9.376;2023-01-28T07:05:27;3.10;;;2.73;;
13311;SDS011;34033;48.672;9.376;2023-01-28T07:07:52;2.40;;;2.20;;
13311;SDS011;34033;48.672;9.376;2023-01-28T07:10:17;2.60;;;2.33;;
13311;SDS011;34033;48.672;9.376;2023-01-28T07:12:43;3.17;;;2.63;;
13311;SDS011;34033;48.672;9.376;2023-01-28T07:15:08;2.43;;;2.23;;
13311;SDS011;34033;48.672;9.376;2023-01-28T07:17:40;3.27;;;2.50;;
13311;SDS011;34033;48.672;9.376;2023-01-28T07:20:12;3.47;;;2.60;;
13311;SDS011;34033;48.672;9.376;2023-01-28T07:22:42;4.10;;;2.70;;
13311;SDS011;34033;48.672;9.376;2023-01-28T07:25:18;3.23;;;2.77;;
13311;SDS011;34033;48.672;9.376;2023-01-28T07:27:51;3.40;;;2.40;;
13311;SDS011;34033;48.672;9.376;2023-01-28T07:30:18;2.93;;;2.63;;
13311;SDS011;34033;48.672;9.376;2023-01-28T07:32:44;2.87;;;2.57;;
13311;SDS011;34033;48.672;9.376;2023-01-28T07:35:10;3.50;;;2.50;;
13311;SDS011;34033;48.672;9.376;2023-01-28T07:37:36;2.87;;;2.30;;
13311;SDS011;34033;48.672;9.376;2023-01-28T07:40:02;3.07;;;2.40;;
13311;SDS011;34033;48.672;9.376;2023-01-28T07:42:28;2.53;;;2.33;;
13311;SDS011;34033;48.672;9.376;2023-01-28T07:44:53;2.60;;;2.40;;
13311;SDS011;34033;48.672;9.376;2023-01-28T07:47:19;2.40;;;2.20;;
13311;SDS011;34033;48.672;9.376;2023-01-28T07:49:44;3.00;;;2.70;;
13311;SDS011;34033;48.672;9.376;2023-01-28T07:52:09;3.07;;;2.57;;
13311;SDS011;34033;48.672;9.376;2023-01-28T07:54:35;2.67;;;2.47;;
13311;SDS011;34033;48.672;9.376;2023-01-28T07:57:00;2.60;;;2.40;;
13311;SDS011;34033;48.672;9.376;2023-01-28T07:59:26;2.73;;;2.53;;
13311;SDS011;34033;48.672;9.376;2023-01-28T08:01:51;2.40;;;2.20;;
13311;SDS011;34033;48.672;9.376;2023-01-28T08:04:18;3.30;;;2.80;;
13311;SDS011;34033;48.672;9.376;2023-01-28T08:06:43;3.27;;;2.90;;
13311;SDS011;34033;48.672;9.376;2023-01-28T08:09:09;5.03;;;3.07;;
13311;SDS011;34033;48.672;9.376;2023-01-28T08:11:36;5.87;;;2.80;;
13311;SDS011;34033;48.672;9.376;2023-01-28T08:14:02;3.43;;;2.90;;
13311;SDS011;34033;48.672;9.376;2023-01-28T08:16:27;3.03;;;2.50;;
13311;SDS011;34033;48.672;9.376;2023-01-28T08:18:53;3.70;;;2.90;;
13311;SDS011;34033;48.672;9.376;2023-01-28T08:21:18;3.17;;;2.70;;
13311;SDS011;34033;48.672;9.376;2023-01-28T08:23:44;3.73;;;3.07;;
13311;SDS011;34033;48.672;9.376;2023-01-28T08:26:09;2.40;;;2.20;;
13311;SDS011;34033;48.672;9.376;2023-01-28T08:28:34;2.70;;;2.47;;
13311;SDS011;34033;48.672;9.376;2023-01-28T08:31:00;3.73;;;3.10;;
13311;SDS011;34033;48.672;9.376;2023-01-28T08:33:25;2.50;;;2.30;;
13311;SDS011;34033;48.672;9.376;2023-01-28T08:35:51;3.63;;;2.90;;
13311;SDS011;34033;48.672;9.376;2023-01-28T08:38:16;1.60;;;1.50;;
13311;SDS011;34033;48.672;9.376;2023-01-28T08:40:43;1.93;;;1.80;;
13311;SDS011;34033;48.672;9.376;2023-01-28T08:43:09;2.20;;;2.00;;
13311;SDS011;34033;48.672;9.376;2023-01-28T08:45:34;2.90;;;2.70;;
13311;SDS011;34033;48.672;9.376;2023-01-28T08:48:00;3.33;;;2.97;;
13311;SDS011;34033;48.672;9.376;2023-01-28T08:50:29;4.53;;;3.40;;
13311;SDS011;34033;48.672;9.376;2023-01-28T08:52:57;4.40;;;3.43;;
13311;SDS011;34033;48.672;9.376;2023-01-28T08:55:25;4.13;;;3.30;;
13311;SDS011;34033;48.672;9.376;2023-01-28T08:57:52;3.97;;;3.20;;
13311;SDS011;34033;48.672;9.376;2023-01-28T09:00:18;3.37;;;3.07;;
13311;SDS011;34033;48.672;9.376;2023-01-28T09:02:44;4.37;;;3.63;;
13311;SDS011;34033;48.672;9.376;2023-01-28T09:05:10;4.33;;;3.40;;
13311;SDS011;34033;48.672;9.376;2023-01-28T09:07:35;3.87;;;3.00;;
13311;SDS011;34033;48.672;9.376;2023-01-28T09:10:02;3.83;;;3.20;;
13311;SDS011;34033;48.672;9.376;2023-01-28T09:12:29;4.20;;;3.67;;
13311;SDS011;34033;48.672;9.376;2023-01-28T09:14:54;4.07;;;3.40;;
13311;SDS011;34033;48.672;9.376;2023-01-28T09:17:20;5.03;;;3.90;;
13311;SDS011;34033;48.672;9.376;2023-01-28T09:19:46;4.23;;;3.57;;
13311;SDS011;34033;48.672;9.376;2023-01-28T09:22:11;4.70;;;3.30;;
13311;SDS011;34033;48.672;9.376;2023-01-28T09:24:36;3.57;;;3.20;;
13311;SDS011;34033;48.672;9.376;2023-01-28T09:27:02;3.60;;;3.27;;
13311;SDS011;34033;48.672;9.376;2023-01-28T09:29:27;4.37;;;3.53;;
13311;SDS011;34033;48.672;9.376;2023-01-28T09:31:52;4.20;;;3.73;;
13311;SDS011;34033;48.672;9.376;2023-01-28T09:34:18;4.43;;;3.03;;
13311;SDS011;34033;48.672;9.376;2023-01-28T09:36:43;5.87;;;3.50;;
13311;SDS011;34033;48.672;9.376;2023-01-28T09:39:08;3.97;;;3.37;;
13311;SDS011;34033;48.672;9.376;2023-01-28T09:44:37;3.47;;;3.00;;
13311;SDS011;34033;48.672;9.376;2023-01-28T09:50:11;3.53;;;3.20;;
13311;SDS011;34033;48.672;9.376;2023-01-28T09:52:41;3.63;;;3.00;;
13311;SDS011;34033;48.672;9.376;2023-01-28T09:58:09;4.67;;;3.60;;
13311;SDS011;34033;48.672;9.376;2023-01-28T10:00:41;5.30;;;3.83;;
13311;SDS011;34033;48.672;9.376;2023-01-28T10:06:17;3.60;;;3.30;;
13311;SDS011;34033;48.672;9.376;2023-01-28T10:14:39;3.40;;;3.10;;
13311;SDS011;34033;48.672;9.376;2023-01-28T10:19:49;3.80;;;3.23;;
13311;SDS011;34033;48.672;9.376;2023-01-28T10:22:38;4.13;;;3.40;;
13311;SDS011;34033;48.672;9.376;2023-01-28T10:25:19;4.73;;;3.30;;
13311;SDS011;34033;48.672;9.376;2023-01-28T10:27:47;4.17;;;3.33;;
13311;SDS011;34033;48.672;9.376;2023-01-28T10:30:16;3.47;;;3.17;;
13311;SDS011;34033;48.672;9.376;2023-01-28T10:32:55;4.47;;;3.53;;
13311;SDS011;34033;48.672;9.376;2023-01-28T10:35:21;4.93;;;3.80;;
13311;SDS011;34033;48.672;9.376;2023-01-28T10:37:48;4.37;;;3.77;;
13311;SDS011;34033;48.672;9.376;2023-01-28T10:40:16;3.93;;;3.33;;
13311;SDS011;34033;48.672;9.376;2023-01-28T10:42:42;5.30;;;3.70;;
13311;SDS011;34033;48.672;9.376;2023-01-28T10:45:25;3.87;;;3.47;;
13311;SDS011;34033;48.672;9.376;2023-01-28T10:50:32;2.77;;;2.53;;
13311;SDS011;34033;48.672;9.376;2023-01-28T10:53:03;3.73;;;3.07;;
13311;SDS011;34033;48.672;9.376;2023-01-28T10:58:23;6.30;;;3.47;;
13311;SDS011;34033;48.672;9.376;2023-01-28T11:00:51;4.23;;;3.67;;
13311;SDS011;34033;48.672;9.376;2023-01-28T11:03:18;4.80;;;3.63;;
13311;SDS011;34033;48.672;9.376;2023-01-28T11:05:52;5.37;;;3.80;;
13311;SDS011;34033;48.672;9.376;2023-01-28T11:08:19;3.87;;;3.10;;
13311;SDS011;34033;48.672;9.376;2023-01-28T11:10:45;5.57;;;3.87;;
13311;SDS011;34033;48.672;9.376;2023-01-28T11:15:46;6.97;;;4.10;;
13311;SDS011;34033;48.672;9.376;2023-01-28T11:18:20;4.57;;;3.37;;
13311;SDS011;34033;48.672;9.376;2023-01-28T11:20:58;5.77;;;3.60;;
13311;SDS011;34033;48.672;9.376;2023-01-28T11:23:26;4.77;;;3.43;;
13311;SDS011;34033;48.672;9.376;2023-01-28T11:26:06;3.35;;;3.03;;
13311;SDS011;34033;48.672;9.376;2023-01-28T11:28:39;5.50;;;4.33;;
13311;SDS011;34033;48.672;9.376;2023-01-28T11:31:07;4.70;;;3.87;;
13311;SDS011;34033;48.672;9.376;2023-01-28T11:33:38;4.90;;;3.93;;
13311;SDS011;34033;48.672;9.376;2023-01-28T11:36:31;4.57;;;3.43;;
13311;SDS011;34033;48.672;9.376;2023-01-28T11:39:02;4.40;;;3.57;;
13311;SDS011;34033;48.672;9.376;2023-01-28T11:41:45;4.07;;;2.97;;
13311;SDS011;34033;48.672;9.376;2023-01-28T12:05:56;3.50;;;2.90;;
13311;SDS011;34033;48.672;9.376;2023-01-28T12:08:51;4.80;;;3.20;;
13311;SDS011;34033;48.672;9.376;2023-01-28T12:24:10;4.20;;;3.20;;
13311;SDS011;34033;48.672;9.376;2023-01-28T12:31:59;5.17;;;3.30;;
13311;SDS011;34033;48.672;9.376;2023-01-28T12:35:08;5.97;;;3.37;;
13311;SDS011;34033;48.672;9.376;2023-01-28T12:43:00;5.50;;;3.67;;
13311;SDS011;34033;48.672;9.376;2023-01-28T12:45:32;5.60;;;3.63;;
13311;SDS011;34033;48.672;9.376;2023-01-28T12:48:15;3.60;;;3.27;;
13311;SDS011;34033;48.672;9.376;2023-01-28T12:50:50;4.43;;;3.70;;
13311;SDS011;34033;48.672;9.376;2023-01-28T12:53:30;5.80;;;3.80;;
13311;SDS011;34033;48.672;9.376;2023-01-28T12:56:07;4.67;;;3.87;;
13311;SDS011;34033;48.672;9.376;2023-01-28T12:58:35;8.10;;;3.67;;
13311;SDS011;34033;48.672;9.376;2023-01-28T13:07:40;4.57;;;3.53;;
13311;SDS011;34033;48.672;9.376;2023-01-28T13:10:35;4.33;;;3.37;;
13311;SDS011;34033;48.672;9.376;2023-01-28T13:13:05;5.10;;;3.83;;
13311;SDS011;34033;48.672;9.376;2023-01-28T13:15:36;6.20;;;4.97;;
13311;SDS011;34033;48.672;9.376;2023-01-28T13:18:06;5.90;;;4.40;;
13311;SDS011;34033;48.672;9.376;2023-01-28T13:20:52;5.60;;;4.20;;
13311;SDS011;34033;48.672;9.376;2023-01-28T13:25:55;7.03;;;4.10;;
13311;SDS011;34033;48.672;9.376;2023-01-28T13:28:39;6.73;;;4.17;;
13311;SDS011;34033;48.672;9.376;2023-01-28T13:31:05;4.97;;;3.53;;
13311;SDS011;34033;48.672;9.376;2023-01-28T13:33:34;6.77;;;4.00;;
13311;SDS011;34033;48.672;9.376;2023-01-28T13:36:43;4.97;;;3.87;;
13311;SDS011;34033;48.672;9.376;2023-01-28T13:39:26;4.37;;;3.80;;
13311;SDS011;34033;48.672;9.376;2023-01-28T13:41:47;5.33;;;4.17;;
13311;SDS011;34033;48.672;9.376;2023-01-28T13:44:30;7.40;;;4.03;;
13311;SDS011;34033;48.672;9.376;2023-01-28T13:49:45;5.03;;;3.80;;
13311;SDS011;34033;48.672;9.376;2023-01-28T13:52:13;4.87;;;3.70;;
13311;SDS011;34033;48.672;9.376;2023-01-28T13:54:45;5.97;;;4.37;;
13311;SDS011;34033;48.672;9.376;2023-01-28T14:13:09;4.00;;;3.27;;
13311;SDS011;34033;48.672;9.376;2023-01-28T14:16:10;5.53;;;3.57;;
13311;SDS011;34033;48.672;9.376;2023-01-28T14:18:42;3.80;;;3.40;;
13311;SDS011;34033;48.672;9.376;2023-01-28T14:21:17;3.93;;;3.53;;
13311;SDS011;34033;48.672;9.376;2023-01-28T14:23:51;6.20;;;3.90;;
13311;SDS011;34033;48.672;9.376;2023-01-28T14:31:44;4.50;;;3.50;;
13311;SDS011;34033;48.672;9.376;2023-01-28T14:34:22;3.93;;;3.23;;
13311;SDS011;34033;48.672;9.376;2023-01-28T14:36:48;4.30;;;3.00;;
13311;SDS011;34033;48.672;9.376;2023-01-28T14:39:19;3.07;;;2.77;;
13311;SDS011;34033;48.672;9.376;2023-01-28T14:41:57;5.63;;;3.10;;
13311;SDS011;34033;48.672;9.376;2023-01-28T14:50:02;2.50;;;2.30;;
13311;SDS011;34033;48.672;9.376;2023-01-28T14:53:36;3.87;;;2.53;;
13311;SDS011;34033;48.672;9.376;2023-01-28T14:55:36;2.57;;;2.37;;
13311;SDS011;34033;48.672;9.376;2023-01-28T14:59:00;3.53;;;2.57;;
13311;SDS011;34033;48.672;9.376;2023-01-28T15:01:26;2.60;;;2.33;;
13311;SDS011;34033;48.672;9.376;2023-01-28T15:03:53;2.90;;;2.60;;
13311;SDS011;34033;48.672;9.376;2023-01-28T15:06:29;4.60;;;2.87;;
13311;SDS011;34033;48.672;9.376;2023-01-28T15:09:06;1.33;;;1.23;;
13311;SDS011;34033;48.672;9.376;2023-01-28T15:11:34;1.70;;;1.60;;
13311;SDS011;34033;48.672;9.376;2023-01-28T15:14:03;4.27;;;3.17;;
13311;SDS011;34033;48.672;9.376;2023-01-28T15:16:36;5.00;;;3.10;;
13311;SDS011;34033;48.672;9.376;2023-01-28T15:19:04;3.20;;;2.90;;
13311;SDS011;34033;48.672;9.376;2023-01-28T15:21:33;3.27;;;2.47;;
13311;SDS011;34033;48.672;9.376;2023-01-28T15:23:59;4.63;;;2.50;;
13311;SDS011;34033;48.672;9.376;2023-01-28T15:26:28;4.23;;;2.97;;
13311;SDS011;34033;48.672;9.376;2023-01-28T15:28:56;2.70;;;2.50;;
13311;SDS011;34033;48.672;9.376;2023-01-28T15:31:29;3.17;;;2.07;;
13311;SDS011;34033;48.672;9.376;2023-01-28T15:34:30;4.37;;;2.50;;
13311;SDS011;34033;48.672;9.376;2023-01-28T15:36:54;2.27;;;1.70;;
13311;SDS011;34033;48.672;9.376;2023-01-28T15:39:28;4.40;;;2.43;;
13311;SDS011;34033;48.672;9.376;2023-01-28T15:44:34;2.80;;;2.37;;
13311;SDS011;34033;48.672;9.376;2023-01-28T15:47:02;3.17;;;2.53;;
13311;SDS011;34033;48.672;9.376;2023-01-28T15:49:40;4.63;;;2.77;;
13311;SDS011;34033;48.672;9.376;2023-01-28T15:52:08;3.30;;;2.67;;
13311;SDS011;34033;48.672;9.376;2023-01-28T15:54:38;6.43;;;2.87;;
13311;SDS011;34033;48.672;9.376;2023-01-28T15:57:09;2.85;;;2.50;;
13311;SDS011;34033;48.672;9.376;2023-01-28T15:59:42;2.50;;;2.30;;
13311;SDS011;34033;48.672;9.376;2023-01-28T16:02:21;4.00;;;2.50;;
13311;SDS011;34033;48.672;9.376;2023-01-28T16:07:49;2.70;;;2.07;;
13311;SDS011;34033;48.672;9.376;2023-01-28T16:10:21;3.47;;;2.40;;
13311;SDS011;34033;48.672;9.376;2023-01-28T16:15:49;3.03;;;2.43;;
13311;SDS011;34033;48.672;9.376;2023-01-28T16:21:04;2.33;;;2.13;;
13311;SDS011;34033;48.672;9.376;2023-01-28T16:23:31;4.00;;;2.50;;
13311;SDS011;34033;48.672;9.376;2023-01-28T16:26:01;2.30;;;2.10;;
13311;SDS011;34033;48.672;9.376;2023-01-28T16:28:29;2.20;;;2.00;;
13311;SDS011;34033;48.672;9.376;2023-01-28T16:30:56;2.30;;;2.10;;
13311;SDS011;34033;48.672;9.376;2023-01-28T16:33:23;2.93;;;2.50;;
13311;SDS011;34033;48.672;9.376;2023-01-28T16:35:48;2.47;;;2.20;;
13311;SDS011;34033;48.672;9.376;2023-01-28T16:38:14;3.73;;;2.83;;
13311;SDS011;34033;48.672;9.376;2023-01-28T16:40:42;2.77;;;2.53;;
13311;SDS011;34033;48.672;9.376;2023-01-28T16:43:09;4.20;;;2.03;;
13311;SDS011;34033;48.672;9.376;2023-01-28T16:45:38;3.00;;;2.70;;
13311;SDS011;34033;48.672;9.376;2023-01-28T16:48:05;2.77;;;2.57;;
13311;SDS011;34033;48.672;9.376;2023-01-28T16:50:31;2.90;;;2.60;;
13311;SDS011;34033;48.672;9.376;2023-01-28T16:52:57;2.77;;;2.43;;
13311;SDS011;34033;48.672;9.376;2023-01-28T16:55:23;3.07;;;2.77;;
13311;SDS011;34033;48.672;9.376;2023-01-28T16:57:50;3.17;;;2.53;;
13311;SDS011;34033;48.672;9.376;2023-01-28T17:00:18;3.77;;;2.87;;
13311;SDS011;34033;48.672;9.376;2023-01-28T17:02:48;2.63;;;2.07;;
13311;SDS011;34033;48.672;9.376;2023-01-28T17:05:14;3.70;;;2.60;;
13311;SDS011;34033;48.672;9.376;2023-01-28T17:07:40;3.00;;;2.70;;
13311;SDS011;34033;48.672;9.376;2023-01-28T17:10:06;2.60;;;2.40;;
13311;SDS011;34033;48.672;9.376;2023-01-28T17:12:32;3.23;;;2.40;;
13311;SDS011;34033;48.672;9.376;2023-01-28T17:14:57;2.67;;;2.33;;
13311;SDS011;34033;48.672;9.376;2023-01-28T17:17:23;3.10;;;2.30;;
13311;SDS011;34033;48.672;9.376;2023-01-28T17:19:48;4.17;;;2.57;;
13311;SDS011;34033;48.672;9.376;2023-01-28T17:22:14;2.63;;;2.40;;
13311;SDS011;34033;48.672;9.376;2023-01-28T17:24:39;2.80;;;2.40;;
13311;SDS011;34033;48.672;9.376;2023-01-28T17:27:04;2.20;;;2.00;;
13311;SDS011;34033;48.672;9.376;2023-01-28T17:29:30;2.87;;;2.57;;
13311;SDS011;34033;48.672;9.376;2023-01-28T17:31:56;2.43;;;2.23;;
13311;SDS011;34033;48.672;9.376;2023-01-28T17:34:21;3.67;;;3.30;;
13311;SDS011;34033;48.672;9.376;2023-01-28T17:36:46;3.10;;;2.80;;